Caletta — ICNZ — position and weather

sailwx.info

Track history (hours):
 
Tides and Currents Weather Stations Pressure Air Temp Water Temp Dewpoint Dewpoint Depression Visibility Wind Speed Wind Dir Waves Ship Positions

Caletta

Last reported at 2016-Jul-21 14:20 UTC. Time now 2016-Jul-26 12:13 UTC.
Position N 29°23' W 093°39'.

Length 183 m; draft 10.5 m.

Type: Ship (hazmat cat A). MMSI: 247296300.

Date/timePositionNaut miles runAvg speedWind from/ knotsBaromVisibWave heightAir tempDewpointWater temp
2016-Jul-21 14:20N 29°23' W 093°39'3 0.7
2016-Jul-21 10:21N 29°25' W 093°38'9 8.3
2016-Jul-21 09:18N 29°32' W 093°44'811.0
2016-Jul-21 08:33N 29°39' W 093°50'9 9.2
2016-Jul-21 07:33N 29°46' W 093°56'9 7.9
2016-Jul-21 06:21N 29°55' W 093°53'4 4.7
2016-Jul-21 05:34N 29°59' W 093°53'6 5.7
2016-Jul-21 04:29N 30°01' W 093°60'2 0.1
2016-Jul-20 02:34N 30°02' W 094°02'6 5.6
2016-Jul-20 01:33N 29°60' W 093°56'5 5.0
2016-Jul-20 00:33N 29°56' W 093°52'7 7.1
2016-Jul-19 23:33N 29°50' W 093°57'7 7.4
2016-Jul-19 22:33N 29°44' W 093°52'10 9.6
2016-Jul-19 21:33N 29°35' W 093°47'3 1.3
2016-Jul-19 19:18N 29°35' W 093°44'0 0.0
2016-Jul-19 18:33N 29°35' W 093°44'0 0.0
2016-Jul-19 17:30N 29°35' W 093°44'0 0.0
2016-Jul-19 16:33N 29°35' W 093°44'0 0.0
2016-Jul-19 15:24N 29°35' W 093°44'0 0.1
2016-Jul-19 14:33N 29°35' W 093°44'0 0.0
2016-Jul-19 12:27N 29°35' W 093°44'0 0.0
2016-Jul-19 11:33N 29°35' W 093°44'4 0.2
2016-Jul-18 12:04N 29°36' W 093°48'611.1
2016-Jul-18 11:33N 29°42' W 093°50'10 7.1
2016-Jul-18 10:07N 29°50' W 093°58'0 0.0
2016-Jul-16 15:28N 29°50' W 093°58'7 7.2
2016-Jul-16 14:28N 29°44' W 093°52'11 1.8
2016-Jul-16 08:19N 29°36' W 093°44'0 0.0
2016-Jul-16 07:13N 29°36' W 093°44'0 0.0
2016-Jul-15 22:34N 29°36' W 093°44'0 0.0
2016-Jul-15 13:03N 29°36' W 093°44'0 0.2
2016-Jul-15 12:27N 29°36' W 093°44'  
Track history (hours):
 
Tides and Currents Weather Stations Pressure Air Temp Water Temp Dewpoint Dewpoint Depression Visibility Wind Speed Wind Dir Waves Ship Positions

Caletta

Last reported at 2016-Jul-21 14:20 UTC. Time now 2016-Jul-26 12:13 UTC.
Position N 29°23' W 093°39'.

Length 183 m; draft 10.5 m.

Type: Ship (hazmat cat A). MMSI: 247296300.

Date/timePositionNaut miles runAvg speedWind from/ knotsBaromVisibWave heightAir tempDewpointWater temp
2016-Jul-21 14:20N 29°23' W 093°39'3 0.7
2016-Jul-21 10:21N 29°25' W 093°38'9 8.3
2016-Jul-21 09:18N 29°32' W 093°44'811.0
2016-Jul-21 08:33N 29°39' W 093°50'9 9.2
2016-Jul-21 07:33N 29°46' W 093°56'9 7.9
2016-Jul-21 06:21N 29°55' W 093°53'4 4.7
2016-Jul-21 05:34N 29°59' W 093°53'6 5.7
2016-Jul-21 04:29N 30°01' W 093°60'2 0.1
2016-Jul-20 02:34N 30°02' W 094°02'6 5.6
2016-Jul-20 01:33N 29°60' W 093°56'5 5.0
2016-Jul-20 00:33N 29°56' W 093°52'7 7.1
2016-Jul-19 23:33N 29°50' W 093°57'7 7.4
2016-Jul-19 22:33N 29°44' W 093°52'10 9.6
2016-Jul-19 21:33N 29°35' W 093°47'3 1.3
2016-Jul-19 19:18N 29°35' W 093°44'0 0.0
2016-Jul-19 18:33N 29°35' W 093°44'0 0.0
2016-Jul-19 17:30N 29°35' W 093°44'0 0.0
2016-Jul-19 16:33N 29°35' W 093°44'0 0.0
2016-Jul-19 15:24N 29°35' W 093°44'0 0.1
2016-Jul-19 14:33N 29°35' W 093°44'0 0.0
2016-Jul-19 12:27N 29°35' W 093°44'0 0.0
2016-Jul-19 11:33N 29°35' W 093°44'4 0.2
2016-Jul-18 12:04N 29°36' W 093°48'611.1
2016-Jul-18 11:33N 29°42' W 093°50'10 7.1
2016-Jul-18 10:07N 29°50' W 093°58'0 0.0
2016-Jul-16 15:28N 29°50' W 093°58'7 7.2
2016-Jul-16 14:28N 29°44' W 093°52'11 1.8
2016-Jul-16 08:19N 29°36' W 093°44'0 0.0
2016-Jul-16 07:13N 29°36' W 093°44'0 0.0
2016-Jul-15 22:34N 29°36' W 093°44'0 0.0
2016-Jul-15 13:03N 29°36' W 093°44'0 0.2
2016-Jul-15 12:27N 29°36' W 093°44'  

Dump ship's entire track history